sensor_id;sensor_type;location;lat;lon;timestamp;temperature;humidity
20325;DHT22;10320;49.482;11.256;2023-04-24T00:01:32;10.10;99.90
20325;DHT22;10320;49.482;11.256;2023-04-24T00:03:59;10.00;99.90
20325;DHT22;10320;49.482;11.256;2023-04-24T00:06:25;10.00;99.90
20325;DHT22;10320;49.482;11.256;2023-04-24T00:08:59;10.00;99.90
20325;DHT22;10320;49.482;11.256;2023-04-24T00:11:25;10.00;99.90
20325;DHT22;10320;49.482;11.256;2023-04-24T00:13:51;10.00;99.90
20325;DHT22;10320;49.482;11.256;2023-04-24T00:16:16;10.00;99.90
20325;DHT22;10320;49.482;11.256;2023-04-24T00:18:42;10.00;99.90
20325;DHT22;10320;49.482;11.256;2023-04-24T00:21:07;10.00;99.90
20325;DHT22;10320;49.482;11.256;2023-04-24T00:23:33;10.00;99.90
20325;DHT22;10320;49.482;11.256;2023-04-24T00:26:00;9.90;99.90
20325;DHT22;10320;49.482;11.256;2023-04-24T00:28:25;9.90;99.90
20325;DHT22;10320;49.482;11.256;2023-04-24T00:30:51;9.90;99.90
20325;DHT22;10320;49.482;11.256;2023-04-24T00:33:16;9.90;99.90
20325;DHT22;10320;49.482;11.256;2023-04-24T00:35:42;9.90;99.90
20325;DHT22;10320;49.482;11.256;2023-04-24T00:38:08;9.80;99.90
20325;DHT22;10320;49.482;11.256;2023-04-24T00:40:33;9.80;99.90
20325;DHT22;10320;49.482;11.256;2023-04-24T00:42:59;9.80;99.90
20325;DHT22;10320;49.482;11.256;2023-04-24T00:45:25;9.80;99.90
20325;DHT22;10320;49.482;11.256;2023-04-24T00:47:52;9.80;99.90
20325;DHT22;10320;49.482;11.256;2023-04-24T00:50:18;9.80;99.90
20325;DHT22;10320;49.482;11.256;2023-04-24T00:52:45;9.80;99.90
20325;DHT22;10320;49.482;11.256;2023-04-24T00:55:10;9.80;99.90
20325;DHT22;10320;49.482;11.256;2023-04-24T00:57:37;9.80;99.90
20325;DHT22;10320;49.482;11.256;2023-04-24T01:00:04;9.80;99.90
20325;DHT22;10320;49.482;11.256;2023-04-24T01:02:31;9.70;99.90
20325;DHT22;10320;49.482;11.256;2023-04-24T01:05:00;9.70;99.90
20325;DHT22;10320;49.482;11.256;2023-04-24T01:07:26;9.70;99.90
20325;DHT22;10320;49.482;11.256;2023-04-24T01:09:52;9.70;99.90
20325;DHT22;10320;49.482;11.256;2023-04-24T01:12:19;9.70;99.90
20325;DHT22;10320;49.482;11.256;2023-04-24T01:14:45;9.60;99.90
20325;DHT22;10320;49.482;11.256;2023-04-24T01:17:11;9.70;99.90
20325;DHT22;10320;49.482;11.256;2023-04-24T01:19:37;9.70;99.90
20325;DHT22;10320;49.482;11.256;2023-04-24T01:22:09;9.60;99.90
20325;DHT22;10320;49.482;11.256;2023-04-24T01:34:21;9.60;99.90
20325;DHT22;10320;49.482;11.256;2023-04-24T01:36:47;9.50;99.90
20325;DHT22;10320;49.482;11.256;2023-04-24T01:39:13;9.40;99.90
20325;DHT22;10320;49.482;11.256;2023-04-24T01:41:40;9.40;99.90
20325;DHT22;10320;49.482;11.256;2023-04-24T01:44:06;9.40;99.90
20325;DHT22;10320;49.482;11.256;2023-04-24T01:46:32;9.40;99.90
20325;DHT22;10320;49.482;11.256;2023-04-24T01:49:00;9.40;99.90
20325;DHT22;10320;49.482;11.256;2023-04-24T01:51:26;9.50;99.90
20325;DHT22;10320;49.482;11.256;2023-04-24T01:53:52;9.50;99.90
20325;DHT22;10320;49.482;11.256;2023-04-24T01:56:20;9.50;99.90
20325;DHT22;10320;49.482;11.256;2023-04-24T01:58:46;9.60;99.90
20325;DHT22;10320;49.482;11.256;2023-04-24T02:01:18;9.60;99.90
20325;DHT22;10320;49.482;11.256;2023-04-24T02:03:44;9.70;99.90
20325;DHT22;10320;49.482;11.256;2023-04-24T02:06:10;9.70;99.90
20325;DHT22;10320;49.482;11.256;2023-04-24T02:08:35;9.80;99.90
20325;DHT22;10320;49.482;11.256;2023-04-24T02:11:01;9.80;99.90
20325;DHT22;10320;49.482;11.256;2023-04-24T02:13:28;9.80;99.90
20325;DHT22;10320;49.482;11.256;2023-04-24T02:15:53;9.90;99.90
20325;DHT22;10320;49.482;11.256;2023-04-24T02:18:19;9.90;99.90
20325;DHT22;10320;49.482;11.256;2023-04-24T02:20:45;9.90;99.90
20325;DHT22;10320;49.482;11.256;2023-04-24T02:23:11;9.90;99.90
20325;DHT22;10320;49.482;11.256;2023-04-24T02:25:37;9.90;99.90
20325;DHT22;10320;49.482;11.256;2023-04-24T02:28:02;9.90;99.90
20325;DHT22;10320;49.482;11.256;2023-04-24T02:30:28;9.90;99.90
20325;DHT22;10320;49.482;11.256;2023-04-24T02:32:54;9.80;99.90
20325;DHT22;10320;49.482;11.256;2023-04-24T02:35:20;9.80;99.90
20325;DHT22;10320;49.482;11.256;2023-04-24T02:37:46;9.70;99.90
20325;DHT22;10320;49.482;11.256;2023-04-24T02:40:12;9.70;99.90
20325;DHT22;10320;49.482;11.256;2023-04-24T02:42:37;9.60;99.90
20325;DHT22;10320;49.482;11.256;2023-04-24T02:45:03;9.60;99.90
20325;DHT22;10320;49.482;11.256;2023-04-24T02:47:30;9.60;99.90
20325;DHT22;10320;49.482;11.256;2023-04-24T02:49:56;9.50;99.90
20325;DHT22;10320;49.482;11.256;2023-04-24T02:52:21;9.50;99.90
20325;DHT22;10320;49.482;11.256;2023-04-24T02:54:47;9.50;99.90
20325;DHT22;10320;49.482;11.256;2023-04-24T02:57:13;9.50;99.90
20325;DHT22;10320;49.482;11.256;2023-04-24T02:59:38;9.50;99.90
20325;DHT22;10320;49.482;11.256;2023-04-24T03:02:04;9.40;99.90
20325;DHT22;10320;49.482;11.256;2023-04-24T03:04:31;9.40;99.90
20325;DHT22;10320;49.482;11.256;2023-04-24T03:06:57;9.40;99.90
20325;DHT22;10320;49.482;11.256;2023-04-24T03:09:22;9.50;99.90
20325;DHT22;10320;49.482;11.256;2023-04-24T03:11:48;9.50;99.90
20325;DHT22;10320;49.482;11.256;2023-04-24T03:14:15;9.50;99.90
20325;DHT22;10320;49.482;11.256;2023-04-24T03:16:40;9.50;99.90
20325;DHT22;10320;49.482;11.256;2023-04-24T03:19:06;9.50;99.90
20325;DHT22;10320;49.482;11.256;2023-04-24T03:21:32;9.50;99.90
20325;DHT22;10320;49.482;11.256;2023-04-24T03:23:58;9.40;99.90
20325;DHT22;10320;49.482;11.256;2023-04-24T03:26:23;9.40;99.90
20325;DHT22;10320;49.482;11.256;2023-04-24T03:28:50;9.40;99.90
20325;DHT22;10320;49.482;11.256;2023-04-24T03:31:15;9.30;99.90
20325;DHT22;10320;49.482;11.256;2023-04-24T03:33:42;9.30;99.90
20325;DHT22;10320;49.482;11.256;2023-04-24T03:36:08;9.30;99.90
20325;DHT22;10320;49.482;11.256;2023-04-24T03:38:33;9.30;99.90
20325;DHT22;10320;49.482;11.256;2023-04-24T03:40:59;9.30;99.90
20325;DHT22;10320;49.482;11.256;2023-04-24T03:43:24;9.30;99.90
20325;DHT22;10320;49.482;11.256;2023-04-24T03:45:52;9.40;99.90
20325;DHT22;10320;49.482;11.256;2023-04-24T03:48:18;9.40;99.90
20325;DHT22;10320;49.482;11.256;2023-04-24T03:50:43;9.40;99.90
20325;DHT22;10320;49.482;11.256;2023-04-24T03:53:09;9.40;99.90
20325;DHT22;10320;49.482;11.256;2023-04-24T03:55:35;9.30;99.90
20325;DHT22;10320;49.482;11.256;2023-04-24T03:58:01;9.30;99.90
20325;DHT22;10320;49.482;11.256;2023-04-24T04:00:27;9.30;99.90
20325;DHT22;10320;49.482;11.256;2023-04-24T04:02:53;9.30;99.90
20325;DHT22;10320;49.482;11.256;2023-04-24T04:05:18;9.30;99.90
20325;DHT22;10320;49.482;11.256;2023-04-24T04:07:44;9.20;99.90
20325;DHT22;10320;49.482;11.256;2023-04-24T04:10:10;9.20;99.90
20325;DHT22;10320;49.482;11.256;2023-04-24T04:29:41;9.20;99.90
20325;DHT22;10320;49.482;11.256;2023-04-24T04:32:08;9.20;99.90
20325;DHT22;10320;49.482;11.256;2023-04-24T04:34:33;9.20;99.90
20325;DHT22;10320;49.482;11.256;2023-04-24T04:36:59;9.20;99.90
20325;DHT22;10320;49.482;11.256;2023-04-24T04:39:27;9.20;99.90
20325;DHT22;10320;49.482;11.256;2023-04-24T04:41:53;9.30;99.90
20325;DHT22;10320;49.482;11.256;2023-04-24T04:44:19;9.30;99.90
20325;DHT22;10320;49.482;11.256;2023-04-24T04:46:45;9.30;99.90
20325;DHT22;10320;49.482;11.256;2023-04-24T04:49:10;9.40;99.90
20325;DHT22;10320;49.482;11.256;2023-04-24T05:06:14;9.40;99.90
20325;DHT22;10320;49.482;11.256;2023-04-24T05:08:40;9.60;99.90
20325;DHT22;10320;49.482;11.256;2023-04-24T05:11:06;9.70;99.90
20325;DHT22;10320;49.482;11.256;2023-04-24T05:13:31;9.80;99.90
20325;DHT22;10320;49.482;11.256;2023-04-24T05:15:57;9.80;99.90
20325;DHT22;10320;49.482;11.256;2023-04-24T05:18:23;9.90;99.90
20325;DHT22;10320;49.482;11.256;2023-04-24T05:20:48;10.00;99.90
20325;DHT22;10320;49.482;11.256;2023-04-24T05:23:14;10.10;99.90
20325;DHT22;10320;49.482;11.256;2023-04-24T05:25:40;10.10;99.90
20325;DHT22;10320;49.482;11.256;2023-04-24T05:28:06;10.20;99.90
20325;DHT22;10320;49.482;11.256;2023-04-24T05:30:32;10.20;99.90
20325;DHT22;10320;49.482;11.256;2023-04-24T05:32:58;10.30;99.90
20325;DHT22;10320;49.482;11.256;2023-04-24T05:35:23;10.40;99.90
20325;DHT22;10320;49.482;11.256;2023-04-24T05:37:49;10.50;99.90
20325;DHT22;10320;49.482;11.256;2023-04-24T05:40:15;10.60;99.90
20325;DHT22;10320;49.482;11.256;2023-04-24T05:42:40;10.60;99.90
20325;DHT22;10320;49.482;11.256;2023-04-24T05:45:07;10.70;99.90
20325;DHT22;10320;49.482;11.256;2023-04-24T05:49:58;10.70;99.90
20325;DHT22;10320;49.482;11.256;2023-04-24T05:52:24;10.90;99.90
20325;DHT22;10320;49.482;11.256;2023-04-24T05:54:50;11.00;99.90
20325;DHT22;10320;49.482;11.256;2023-04-24T05:57:16;11.10;99.90
20325;DHT22;10320;49.482;11.256;2023-04-24T05:59:41;11.20;99.90
20325;DHT22;10320;49.482;11.256;2023-04-24T06:02:07;11.30;99.90
20325;DHT22;10320;49.482;11.256;2023-04-24T06:04:33;11.40;99.90
20325;DHT22;10320;49.482;11.256;2023-04-24T06:06:59;11.50;99.90
20325;DHT22;10320;49.482;11.256;2023-04-24T06:09:25;11.50;99.90
20325;DHT22;10320;49.482;11.256;2023-04-24T06:11:51;11.50;99.90
20325;DHT22;10320;49.482;11.256;2023-04-24T06:14:21;11.50;99.90
20325;DHT22;10320;49.482;11.256;2023-04-24T06:16:47;11.50;99.90
20325;DHT22;10320;49.482;11.256;2023-04-24T06:19:13;11.50;99.90
20325;DHT22;10320;49.482;11.256;2023-04-24T06:21:39;11.50;99.90
20325;DHT22;10320;49.482;11.256;2023-04-24T06:24:04;11.50;99.90
20325;DHT22;10320;49.482;11.256;2023-04-24T06:26:30;11.60;99.90
20325;DHT22;10320;49.482;11.256;2023-04-24T06:28:57;11.60;99.90
20325;DHT22;10320;49.482;11.256;2023-04-24T06:31:24;11.60;99.90
20325;DHT22;10320;49.482;11.256;2023-04-24T06:33:50;11.60;99.90
20325;DHT22;10320;49.482;11.256;2023-04-24T06:36:16;11.60;99.90
20325;DHT22;10320;49.482;11.256;2023-04-24T06:38:42;11.60;99.90
20325;DHT22;10320;49.482;11.256;2023-04-24T06:41:08;11.60;99.90
20325;DHT22;10320;49.482;11.256;2023-04-24T06:43:33;11.60;99.90
20325;DHT22;10320;49.482;11.256;2023-04-24T06:46:00;11.60;99.90
20325;DHT22;10320;49.482;11.256;2023-04-24T06:48:26;11.70;99.90
20325;DHT22;10320;49.482;11.256;2023-04-24T06:50:52;11.70;99.90
20325;DHT22;10320;49.482;11.256;2023-04-24T06:53:18;11.80;99.90
20325;DHT22;10320;49.482;11.256;2023-04-24T06:55:44;11.60;99.90
20325;DHT22;10320;49.482;11.256;2023-04-24T06:58:12;11.50;99.90
20325;DHT22;10320;49.482;11.256;2023-04-24T07:00:38;11.40;99.90
20325;DHT22;10320;49.482;11.256;2023-04-24T07:03:04;11.30;99.90
20325;DHT22;10320;49.482;11.256;2023-04-24T07:05:32;11.30;99.90
20325;DHT22;10320;49.482;11.256;2023-04-24T07:08:00;11.30;99.90
20325;DHT22;10320;49.482;11.256;2023-04-24T07:10:26;11.40;99.90
20325;DHT22;10320;49.482;11.256;2023-04-24T07:12:54;11.60;99.90
20325;DHT22;10320;49.482;11.256;2023-04-24T07:15:21;11.70;99.90
20325;DHT22;10320;49.482;11.256;2023-04-24T07:17:47;11.80;99.90
20325;DHT22;10320;49.482;11.256;2023-04-24T07:20:13;12.10;99.90
20325;DHT22;10320;49.482;11.256;2023-04-24T07:22:40;12.20;99.90
20325;DHT22;10320;49.482;11.256;2023-04-24T07:25:06;12.40;99.90
20325;DHT22;10320;49.482;11.256;2023-04-24T07:27:33;12.40;99.90
20325;DHT22;10320;49.482;11.256;2023-04-24T07:29:59;12.30;99.90
20325;DHT22;10320;49.482;11.256;2023-04-24T07:32:25;12.20;99.90
20325;DHT22;10320;49.482;11.256;2023-04-24T07:34:50;12.30;99.90
20325;DHT22;10320;49.482;11.256;2023-04-24T07:37:16;12.50;99.90
20325;DHT22;10320;49.482;11.256;2023-04-24T07:39:42;12.50;99.90
20325;DHT22;10320;49.482;11.256;2023-04-24T07:42:07;12.60;99.90
20325;DHT22;10320;49.482;11.256;2023-04-24T07:44:33;12.40;99.90
20325;DHT22;10320;49.482;11.256;2023-04-24T07:46:59;12.20;99.90
20325;DHT22;10320;49.482;11.256;2023-04-24T07:49:25;12.10;99.90
20325;DHT22;10320;49.482;11.256;2023-04-24T07:51:50;12.10;99.90
20325;DHT22;10320;49.482;11.256;2023-04-24T07:54:16;12.10;99.90
20325;DHT22;10320;49.482;11.256;2023-04-24T07:56:43;12.20;99.90
20325;DHT22;10320;49.482;11.256;2023-04-24T07:59:09;12.20;99.90
20325;DHT22;10320;49.482;11.256;2023-04-24T08:01:35;12.30;99.90
20325;DHT22;10320;49.482;11.256;2023-04-24T08:04:01;12.20;99.90
20325;DHT22;10320;49.482;11.256;2023-04-24T08:06:27;12.40;99.90
20325;DHT22;10320;49.482;11.256;2023-04-24T08:08:59;12.30;99.90
20325;DHT22;10320;49.482;11.256;2023-04-24T08:11:25;12.10;99.90
20325;DHT22;10320;49.482;11.256;2023-04-24T08:13:51;12.20;99.90
20325;DHT22;10320;49.482;11.256;2023-04-24T08:16:17;11.90;99.90
20325;DHT22;10320;49.482;11.256;2023-04-24T08:18:43;11.80;99.90
20325;DHT22;10320;49.482;11.256;2023-04-24T08:21:08;11.80;99.90
20325;DHT22;10320;49.482;11.256;2023-04-24T08:23:34;11.80;99.90
20325;DHT22;10320;49.482;11.256;2023-04-24T08:26:00;12.00;99.90
20325;DHT22;10320;49.482;11.256;2023-04-24T08:28:25;12.00;99.90
20325;DHT22;10320;49.482;11.256;2023-04-24T08:30:51;12.10;99.90
20325;DHT22;10320;49.482;11.256;2023-04-24T08:33:21;12.30;99.90
20325;DHT22;10320;49.482;11.256;2023-04-24T08:35:46;12.50;99.90
20325;DHT22;10320;49.482;11.256;2023-04-24T08:38:12;12.80;99.90
20325;DHT22;10320;49.482;11.256;2023-04-24T08:40:38;12.80;99.90
20325;DHT22;10320;49.482;11.256;2023-04-24T08:43:04;12.90;99.90
20325;DHT22;10320;49.482;11.256;2023-04-24T08:45:30;12.80;99.90
20325;DHT22;10320;49.482;11.256;2023-04-24T08:47:57;12.90;99.90
20325;DHT22;10320;49.482;11.256;2023-04-24T08:50:24;12.90;99.90
20325;DHT22;10320;49.482;11.256;2023-04-24T08:52:51;12.70;99.90
20325;DHT22;10320;49.482;11.256;2023-04-24T08:55:19;12.70;99.90
20325;DHT22;10320;49.482;11.256;2023-04-24T08:57:50;12.70;99.90
20325;DHT22;10320;49.482;11.256;2023-04-24T09:00:17;12.70;99.90
20325;DHT22;10320;49.482;11.256;2023-04-24T09:02:43;13.00;99.90
20325;DHT22;10320;49.482;11.256;2023-04-24T09:05:10;13.00;99.90
20325;DHT22;10320;49.482;11.256;2023-04-24T09:07:39;12.90;99.90
20325;DHT22;10320;49.482;11.256;2023-04-24T09:10:07;12.70;99.90
20325;DHT22;10320;49.482;11.256;2023-04-24T09:12:34;13.00;99.90
20325;DHT22;10320;49.482;11.256;2023-04-24T09:15:01;13.10;99.90
20325;DHT22;10320;49.482;11.256;2023-04-24T09:17:30;12.90;99.90
20325;DHT22;10320;49.482;11.256;2023-04-24T09:19:55;12.80;99.90
20325;DHT22;10320;49.482;11.256;2023-04-24T09:22:21;12.90;99.90
20325;DHT22;10320;49.482;11.256;2023-04-24T09:24:47;12.90;99.90
20325;DHT22;10320;49.482;11.256;2023-04-24T09:27:13;13.00;99.90
20325;DHT22;10320;49.482;11.256;2023-04-24T09:30:02;13.10;99.90
20325;DHT22;10320;49.482;11.256;2023-04-24T09:32:28;13.30;99.90
20325;DHT22;10320;49.482;11.256;2023-04-24T09:37:37;13.30;99.90
20325;DHT22;10320;49.482;11.256;2023-04-24T09:42:38;13.80;99.90
20325;DHT22;10320;49.482;11.256;2023-04-24T09:45:09;14.00;99.90
20325;DHT22;10320;49.482;11.256;2023-04-24T09:47:39;13.90;99.90
20325;DHT22;10320;49.482;11.256;2023-04-24T09:50:15;13.60;99.90
20325;DHT22;10320;49.482;11.256;2023-04-24T09:52:47;13.10;99.90
20325;DHT22;10320;49.482;11.256;2023-04-24T09:55:18;13.00;99.90
20325;DHT22;10320;49.482;11.256;2023-04-24T09:57:59;12.80;99.90
20325;DHT22;10320;49.482;11.256;2023-04-24T10:00:32;12.60;99.90
20325;DHT22;10320;49.482;11.256;2023-04-24T10:02:58;13.10;99.90
20325;DHT22;10320;49.482;11.256;2023-04-24T10:05:35;13.60;99.90
20325;DHT22;10320;49.482;11.256;2023-04-24T10:08:11;13.90;99.90
20325;DHT22;10320;49.482;11.256;2023-04-24T10:10:41;14.10;99.90
20325;DHT22;10320;49.482;11.256;2023-04-24T10:13:09;14.30;99.90
20325;DHT22;10320;49.482;11.256;2023-04-24T10:15:36;14.30;99.90
20325;DHT22;10320;49.482;11.256;2023-04-24T10:18:02;14.10;99.90
20325;DHT22;10320;49.482;11.256;2023-04-24T10:20:30;13.90;99.90
20325;DHT22;10320;49.482;11.256;2023-04-24T10:22:57;14.00;99.90
20325;DHT22;10320;49.482;11.256;2023-04-24T10:25:31;13.90;99.90
20325;DHT22;10320;49.482;11.256;2023-04-24T10:27:58;14.00;99.90
20325;DHT22;10320;49.482;11.256;2023-04-24T10:30:29;14.20;99.90
20325;DHT22;10320;49.482;11.256;2023-04-24T10:32:55;14.10;99.90
20325;DHT22;10320;49.482;11.256;2023-04-24T10:35:22;14.00;99.90
20325;DHT22;10320;49.482;11.256;2023-04-24T10:37:56;14.10;99.90
20325;DHT22;10320;49.482;11.256;2023-04-24T10:40:33;13.90;99.90
20325;DHT22;10320;49.482;11.256;2023-04-24T10:43:03;14.20;99.90
20325;DHT22;10320;49.482;11.256;2023-04-24T10:45:33;14.40;99.90
20325;DHT22;10320;49.482;11.256;2023-04-24T10:48:01;14.40;99.90
20325;DHT22;10320;49.482;11.256;2023-04-24T10:50:51;14.60;99.90
20325;DHT22;10320;49.482;11.256;2023-04-24T10:58:24;14.90;99.90
20325;DHT22;10320;49.482;11.256;2023-04-24T11:01:00;14.50;99.90
20325;DHT22;10320;49.482;11.256;2023-04-24T11:03:31;13.60;99.90
20325;DHT22;10320;49.482;11.256;2023-04-24T11:06:01;13.00;99.90
20325;DHT22;10320;49.482;11.256;2023-04-24T11:33:54;12.60;99.90
20325;DHT22;10320;49.482;11.256;2023-04-24T11:36:20;13.50;99.90
20325;DHT22;10320;49.482;11.256;2023-04-24T11:38:46;13.60;99.90
20325;DHT22;10320;49.482;11.256;2023-04-24T11:41:13;13.60;99.90
20325;DHT22;10320;49.482;11.256;2023-04-24T11:43:39;13.80;99.90
20325;DHT22;10320;49.482;11.256;2023-04-24T11:46:05;13.90;99.90
20325;DHT22;10320;49.482;11.256;2023-04-24T11:48:34;14.00;99.90
20325;DHT22;10320;49.482;11.256;2023-04-24T11:51:01;14.10;99.90
20325;DHT22;10320;49.482;11.256;2023-04-24T11:55:53;14.50;99.90
20325;DHT22;10320;49.482;11.256;2023-04-24T11:58:21;14.60;99.90
20325;DHT22;10320;49.482;11.256;2023-04-24T12:00:56;14.30;99.90
20325;DHT22;10320;49.482;11.256;2023-04-24T15:21:35;14.10;99.90
20325;DHT22;10320;49.482;11.256;2023-04-24T15:24:01;18.70;99.90
20325;DHT22;10320;49.482;11.256;2023-04-24T15:26:27;19.20;99.90
20325;DHT22;10320;49.482;11.256;2023-04-24T15:28:52;19.40;99.90
20325;DHT22;10320;49.482;11.256;2023-04-24T15:31:18;19.80;99.90
20325;DHT22;10320;49.482;11.256;2023-04-24T15:33:44;20.30;99.90
20325;DHT22;10320;49.482;11.256;2023-04-24T15:36:10;20.10;99.90
20325;DHT22;10320;49.482;11.256;2023-04-24T15:38:37;19.70;99.90
20325;DHT22;10320;49.482;11.256;2023-04-24T15:41:02;20.20;99.90
20325;DHT22;10320;49.482;11.256;2023-04-24T15:48:22;18.90;99.80
20325;DHT22;10320;49.482;11.256;2023-04-24T18:36:55;18.80;99.90
20325;DHT22;10320;49.482;11.256;2023-04-24T18:39:21;9.70;99.90
20325;DHT22;10320;49.482;11.256;2023-04-24T18:41:47;9.50;99.90
20325;DHT22;10320;49.482;11.256;2023-04-24T18:44:12;9.40;99.90
20325;DHT22;10320;49.482;11.256;2023-04-24T18:46:39;9.40;99.90
20325;DHT22;10320;49.482;11.256;2023-04-24T18:49:06;9.30;99.90
20325;DHT22;10320;49.482;11.256;2023-04-24T18:51:32;9.20;99.90
20325;DHT22;10320;49.482;11.256;2023-04-24T18:53:57;9.20;99.90
20325;DHT22;10320;49.482;11.256;2023-04-24T18:56:26;9.20;99.90
20325;DHT22;10320;49.482;11.256;2023-04-24T18:58:52;9.10;99.90
20325;DHT22;10320;49.482;11.256;2023-04-24T19:01:20;9.00;99.90
20325;DHT22;10320;49.482;11.256;2023-04-24T19:03:46;9.00;99.90
20325;DHT22;10320;49.482;11.256;2023-04-24T19:06:11;8.90;99.90
20325;DHT22;10320;49.482;11.256;2023-04-24T19:08:37;8.90;99.90
20325;DHT22;10320;49.482;11.256;2023-04-24T19:11:03;8.90;99.90
20325;DHT22;10320;49.482;11.256;2023-04-24T19:13:29;8.80;99.90
20325;DHT22;10320;49.482;11.256;2023-04-24T19:15:55;8.80;99.90
20325;DHT22;10320;49.482;11.256;2023-04-24T19:18:21;8.80;99.90
20325;DHT22;10320;49.482;11.256;2023-04-24T19:20:46;8.80;99.90
20325;DHT22;10320;49.482;11.256;2023-04-24T19:23:12;8.70;99.90
20325;DHT22;10320;49.482;11.256;2023-04-24T19:25:38;8.70;99.90
20325;DHT22;10320;49.482;11.256;2023-04-24T19:28:04;8.60;99.90
20325;DHT22;10320;49.482;11.256;2023-04-24T19:30:29;8.50;99.90
20325;DHT22;10320;49.482;11.256;2023-04-24T19:32:55;8.40;99.90
20325;DHT22;10320;49.482;11.256;2023-04-24T19:35:21;8.40;99.90
20325;DHT22;10320;49.482;11.256;2023-04-24T19:37:46;8.40;99.90
20325;DHT22;10320;49.482;11.256;2023-04-24T19:40:13;8.30;99.90
20325;DHT22;10320;49.482;11.256;2023-04-24T19:42:39;8.20;99.90
20325;DHT22;10320;49.482;11.256;2023-04-24T19:45:06;8.20;99.90
20325;DHT22;10320;49.482;11.256;2023-04-24T19:47:31;8.00;99.90
20325;DHT22;10320;49.482;11.256;2023-04-24T19:49:57;7.90;99.90
20325;DHT22;10320;49.482;11.256;2023-04-24T19:52:24;7.90;99.90
20325;DHT22;10320;49.482;11.256;2023-04-24T19:54:50;7.80;99.90
20325;DHT22;10320;49.482;11.256;2023-04-24T19:57:16;7.70;99.90
20325;DHT22;10320;49.482;11.256;2023-04-24T19:59:42;7.70;99.90
20325;DHT22;10320;49.482;11.256;2023-04-24T20:02:09;7.60;99.90
20325;DHT22;10320;49.482;11.256;2023-04-24T20:04:34;7.60;99.90
20325;DHT22;10320;49.482;11.256;2023-04-24T20:07:00;7.50;99.90
20325;DHT22;10320;49.482;11.256;2023-04-24T20:09:26;7.50;99.90
20325;DHT22;10320;49.482;11.256;2023-04-24T20:11:52;7.30;99.90
20325;DHT22;10320;49.482;11.256;2023-04-24T20:14:19;7.20;99.90
20325;DHT22;10320;49.482;11.256;2023-04-24T20:16:44;7.10;99.90
20325;DHT22;10320;49.482;11.256;2023-04-24T20:19:10;6.90;99.90
20325;DHT22;10320;49.482;11.256;2023-04-24T20:21:36;6.80;99.90
